createdAt,value
2023-05-19T00:01:17.120Z,5.20
2023-05-19T00:03:57.982Z,4.70
2023-05-19T00:06:31.999Z,4.57
2023-05-19T00:09:04.345Z,5.20
2023-05-19T00:11:37.074Z,3.93
2023-05-19T00:14:10.676Z,4.40
2023-05-19T00:16:42.966Z,4.87
2023-05-19T00:19:17.360Z,5.23
2023-05-19T00:21:48.037Z,3.80
2023-05-19T00:24:18.870Z,4.97
2023-05-19T00:26:49.618Z,4.03
2023-05-19T00:29:20.906Z,5.10
2023-05-19T00:31:52.041Z,4.93
2023-05-19T00:34:25.300Z,4.77
2023-05-19T00:36:56.050Z,4.40
2023-05-19T00:39:26.697Z,5.13
2023-05-19T00:41:57.311Z,4.67
2023-05-19T00:44:27.933Z,4.57
2023-05-19T00:46:59.283Z,4.30
2023-05-19T00:49:33.342Z,4.50
2023-05-19T00:52:05.499Z,4.50
2023-05-19T00:54:37.841Z,4.00
2023-05-19T00:57:08.806Z,4.17
2023-05-19T00:59:39.381Z,4.33
2023-05-19T01:02:10.083Z,5.00
2023-05-19T01:04:44.378Z,5.33
2023-05-19T01:07:15.493Z,4.47
2023-05-19T01:09:46.441Z,4.57
2023-05-19T01:12:17.190Z,4.97
2023-05-19T01:14:48.098Z,4.60
2023-05-19T01:17:27.847Z,4.47
2023-05-19T01:20:13.786Z,5.17
2023-05-19T01:23:03.607Z,5.13
2023-05-19T01:26:02.181Z,6.10
2023-05-19T01:29:01.222Z,5.00
2023-05-19T01:31:36.476Z,4.50
2023-05-19T01:34:08.201Z,3.37
2023-05-19T01:36:40.468Z,4.87
2023-05-19T01:39:11.962Z,4.17
2023-05-19T01:41:47.335Z,4.90
2023-05-19T01:44:18.277Z,3.50
2023-05-19T01:46:52.516Z,4.20
2023-05-19T01:49:23.181Z,4.47
2023-05-19T01:51:53.886Z,4.30
2023-05-19T01:54:26.110Z,4.17
2023-05-19T01:57:03.806Z,4.23
2023-05-19T01:59:45.508Z,4.30
2023-05-19T02:02:29.380Z,4.50
2023-05-19T02:05:05.994Z,5.00
2023-05-19T02:07:47.822Z,3.43
2023-05-19T02:10:25.766Z,3.70
2023-05-19T02:13:00.054Z,4.53
2023-05-19T02:15:38.889Z,3.47
2023-05-19T02:18:14.353Z,5.53
2023-05-19T02:20:45.594Z,4.20
2023-05-19T02:23:16.249Z,4.50
2023-05-19T02:25:47.010Z,3.83
2023-05-19T02:28:17.769Z,3.57
2023-05-19T02:30:48.525Z,4.20
2023-05-19T02:33:24.760Z,4.63
2023-05-19T02:35:55.319Z,4.10
2023-05-19T02:38:27.270Z,4.03
2023-05-19T02:40:57.861Z,4.97
2023-05-19T02:43:30.690Z,3.97
2023-05-19T02:46:01.352Z,4.10
2023-05-19T02:48:34.500Z,5.20
2023-05-19T02:51:05.092Z,3.93
2023-05-19T02:53:36.138Z,3.70
2023-05-19T02:56:07.422Z,4.47
2023-05-19T02:58:38.662Z,4.60
2023-05-19T03:01:09.332Z,4.20
2023-05-19T03:03:42.847Z,3.90
2023-05-19T03:06:13.617Z,5.20
2023-05-19T03:08:44.331Z,5.37
2023-05-19T03:11:15.614Z,3.87
2023-05-19T03:13:46.499Z,5.70
2023-05-19T03:16:17.214Z,5.10
2023-05-19T03:18:50.476Z,4.60
2023-05-19T03:21:21.053Z,4.10
2023-05-19T03:23:51.913Z,5.53
2023-05-19T03:26:23.229Z,5.00
2023-05-19T03:28:54.425Z,5.33
2023-05-19T03:31:25.008Z,4.27
2023-05-19T03:33:58.630Z,4.60
2023-05-19T03:36:32.424Z,4.80
2023-05-19T03:39:04.409Z,4.43
2023-05-19T03:41:35.245Z,4.20
2023-05-19T03:44:06.828Z,5.27
2023-05-19T03:46:37.541Z,4.10
2023-05-19T03:49:25.856Z,4.33
2023-05-19T03:52:15.946Z,5.90
2023-05-19T03:55:11.346Z,4.57
2023-05-19T03:57:41.949Z,4.17
2023-05-19T04:00:14.493Z,4.93
2023-05-19T04:02:45.248Z,4.60
2023-05-19T04:05:19.058Z,4.63
2023-05-19T04:07:49.648Z,4.00
2023-05-19T04:10:21.852Z,4.50
2023-05-19T04:12:52.477Z,4.87
2023-05-19T04:15:23.242Z,4.40
2023-05-19T04:17:54.721Z,4.10
2023-05-19T04:20:28.019Z,4.27
2023-05-19T04:22:58.597Z,4.30
2023-05-19T04:25:29.247Z,5.00
2023-05-19T04:28:01.120Z,4.73
2023-05-19T04:30:32.127Z,5.03
2023-05-19T04:33:05.001Z,4.70
2023-05-19T04:35:39.832Z,5.10
2023-05-19T04:38:12.861Z,5.73
2023-05-19T04:40:45.344Z,4.90
2023-05-19T04:43:16.489Z,4.80
2023-05-19T04:45:47.747Z,4.50
2023-05-19T04:48:19.270Z,6.13
2023-05-19T04:50:53.349Z,4.63
2023-05-19T04:53:25.826Z,5.17
2023-05-19T04:55:56.873Z,5.33
2023-05-19T04:58:27.953Z,4.93
2023-05-19T05:00:58.774Z,5.23
2023-05-19T05:03:31.170Z,4.80
2023-05-19T05:06:04.953Z,4.80
2023-05-19T05:08:37.547Z,4.90
2023-05-19T05:11:09.425Z,5.40
2023-05-19T05:13:41.407Z,4.63
2023-05-19T05:16:14.347Z,4.40
2023-05-19T05:18:47.053Z,5.23
2023-05-19T05:21:21.759Z,4.90
2023-05-19T05:23:53.573Z,4.70
2023-05-19T05:26:31.309Z,4.70
2023-05-19T05:29:01.901Z,5.13
2023-05-19T05:31:33.238Z,4.40
2023-05-19T05:34:03.888Z,4.20
2023-05-19T05:36:38.730Z,5.30
2023-05-19T05:39:09.467Z,4.90
2023-05-19T05:41:41.644Z,14.53
2023-05-19T05:44:15.137Z,12.57
2023-05-19T05:46:48.425Z,5.50
2023-05-19T05:49:19.740Z,4.87
2023-05-19T05:52:05.506Z,4.70
2023-05-19T05:54:42.121Z,5.23
2023-05-19T05:57:14.006Z,4.80
2023-05-19T05:59:45.586Z,4.03
2023-05-19T06:02:16.660Z,4.13
2023-05-19T06:04:47.516Z,4.30
2023-05-19T06:07:20.736Z,5.57
2023-05-19T06:09:51.895Z,5.47
2023-05-19T06:12:23.223Z,5.00
2023-05-19T06:14:53.949Z,5.70
2023-05-19T06:17:50.589Z,7.73
2023-05-19T06:20:21.619Z,4.90
2023-05-19T06:22:54.809Z,5.40
2023-05-19T06:25:27.896Z,4.20
2023-05-19T06:27:59.372Z,4.23
2023-05-19T06:30:30.249Z,5.30
2023-05-19T06:33:17.614Z,4.67
2023-05-19T06:35:48.243Z,4.67
2023-05-19T06:38:22.030Z,4.50
2023-05-19T06:40:52.690Z,4.50
2023-05-19T06:43:25.905Z,4.63
2023-05-19T06:46:01.488Z,6.63
2023-05-19T06:48:33.228Z,4.97
2023-05-19T06:51:04.076Z,4.70
2023-05-19T06:53:39.090Z,5.10
2023-05-19T06:56:12.512Z,4.40
2023-05-19T06:58:44.273Z,4.20
2023-05-19T07:01:15.613Z,4.23
2023-05-19T07:03:52.369Z,4.27
2023-05-19T07:06:25.146Z,4.83
2023-05-19T07:08:59.090Z,5.30
2023-05-19T07:11:30.295Z,5.00
2023-05-19T07:14:01.318Z,4.73
2023-05-19T07:16:34.948Z,5.30
2023-05-19T07:19:05.714Z,4.87
2023-05-19T07:21:37.332Z,4.30
2023-05-19T07:24:11.482Z,4.60
2023-05-19T07:26:42.873Z,4.30
2023-05-19T07:29:13.582Z,5.50
2023-05-19T07:31:44.190Z,5.67
2023-05-19T07:34:14.826Z,5.53
2023-05-19T07:36:45.468Z,4.73
2023-05-19T07:39:18.728Z,5.43
2023-05-19T07:41:54.381Z,4.90
2023-05-19T07:44:27.275Z,4.83
2023-05-19T07:46:57.975Z,4.83
2023-05-19T07:49:28.759Z,5.20
2023-05-19T07:51:59.947Z,4.63
2023-05-19T07:54:33.217Z,5.27
2023-05-19T07:57:03.943Z,4.17
2023-05-19T07:59:34.702Z,5.40
2023-05-19T08:02:05.535Z,4.90
2023-05-19T08:04:36.418Z,4.20
2023-05-19T08:07:07.419Z,5.07
2023-05-19T08:09:40.609Z,5.00
2023-05-19T08:12:11.203Z,4.50
2023-05-19T08:14:41.757Z,5.87
2023-05-19T08:17:12.432Z,4.80
2023-05-19T08:19:43.118Z,5.60
2023-05-19T08:22:16.016Z,5.07
2023-05-19T08:24:49.900Z,5.00
2023-05-19T08:27:21.554Z,4.63
2023-05-19T08:29:52.450Z,5.17
2023-05-19T08:32:23.126Z,5.17
2023-05-19T08:34:54.440Z,5.33
2023-05-19T08:37:25.095Z,5.13
2023-05-19T08:39:58.265Z,4.47
2023-05-19T08:42:29.499Z,4.93
2023-05-19T08:45:00.329Z,4.57
2023-05-19T08:47:31.654Z,3.90
2023-05-19T08:50:08.070Z,4.40
2023-05-19T08:52:49.557Z,4.77
2023-05-19T08:55:34.850Z,4.53
2023-05-19T08:58:07.643Z,5.07
2023-05-19T09:00:38.501Z,4.43
2023-05-19T09:03:18.244Z,5.07
2023-05-19T09:05:54.582Z,4.13
2023-05-19T09:08:25.465Z,4.63
2023-05-19T09:10:58.656Z,4.33
2023-05-19T09:13:29.240Z,5.03
2023-05-19T09:16:00.980Z,5.80
2023-05-19T09:18:31.998Z,4.67
2023-05-19T09:21:03.824Z,4.57
2023-05-19T09:23:35.979Z,4.40
2023-05-19T09:26:10.788Z,4.70
2023-05-19T09:28:41.347Z,5.03
2023-05-19T09:31:14.000Z,5.03
2023-05-19T09:33:46.283Z,5.20
2023-05-19T09:36:17.886Z,4.73
2023-05-19T09:38:49.859Z,4.73
2023-05-19T09:41:23.744Z,4.83
2023-05-19T09:43:58.809Z,4.80
2023-05-19T09:46:30.435Z,4.87
2023-05-19T09:49:01.622Z,5.20
2023-05-19T09:51:32.749Z,5.60
2023-05-19T09:54:04.559Z,5.10
2023-05-19T09:56:39.637Z,4.70
2023-05-19T09:59:11.238Z,4.60
2023-05-19T10:01:46.680Z,5.00
2023-05-19T10:04:18.638Z,4.47
2023-05-19T10:06:53.635Z,4.77
2023-05-19T10:09:27.659Z,4.80
2023-05-19T10:12:02.280Z,5.43
2023-05-19T10:14:33.307Z,4.63
2023-05-19T10:17:03.972Z,4.40
2023-05-19T10:19:34.821Z,4.03
2023-05-19T10:22:06.053Z,4.93
2023-05-19T10:24:36.684Z,4.00
2023-05-19T10:27:14.420Z,4.80
2023-05-19T10:29:51.344Z,4.97
2023-05-19T10:32:29.676Z,4.43
2023-05-19T10:35:36.322Z,4.10
2023-05-19T10:38:19.304Z,4.97
2023-05-19T10:41:00.448Z,5.53
2023-05-19T10:43:56.324Z,4.40
2023-05-19T10:46:31.244Z,3.97
2023-05-19T10:49:02.242Z,4.63
2023-05-19T10:51:34.612Z,3.90
2023-05-19T10:54:08.285Z,4.40
2023-05-19T10:56:42.685Z,4.57
2023-05-19T10:59:35.245Z,4.57
2023-05-19T11:02:08.236Z,4.47
2023-05-19T11:04:51.842Z,4.60
2023-05-19T11:07:25.268Z,4.30
2023-05-19T11:09:56.697Z,5.20
2023-05-19T11:12:27.616Z,3.83
2023-05-19T11:15:02.198Z,6.50
2023-05-19T11:17:33.199Z,4.23
2023-05-19T11:20:05.109Z,4.13
2023-05-19T11:22:39.352Z,4.20
2023-05-19T11:25:10.874Z,4.73
2023-05-19T11:27:41.540Z,4.60
2023-05-19T11:30:17.926Z,4.40
2023-05-19T11:32:51.211Z,3.80
2023-05-19T11:35:22.855Z,4.20
2023-05-19T11:37:57.702Z,4.40
2023-05-19T11:40:29.449Z,3.90
2023-05-19T11:43:02.153Z,4.37
2023-05-19T11:45:37.157Z,4.37
2023-05-19T11:48:10.755Z,4.20
2023-05-19T11:50:44.381Z,4.00
2023-05-19T11:53:16.544Z,4.20
2023-05-19T11:55:49.863Z,4.93
2023-05-19T11:58:20.849Z,4.00
2023-05-19T12:00:54.886Z,5.03
2023-05-19T12:03:28.960Z,4.20
2023-05-19T12:06:00.137Z,4.27
2023-05-19T12:08:32.150Z,4.80
2023-05-19T12:11:03.301Z,5.57
2023-05-19T12:13:33.897Z,5.20
2023-05-19T12:16:08.031Z,4.80
2023-05-19T12:18:41.384Z,6.90
2023-05-19T12:21:12.363Z,5.40
2023-05-19T12:23:44.452Z,4.87
2023-05-19T12:26:16.039Z,4.97
2023-05-19T12:28:52.414Z,6.40
2023-05-19T12:31:27.082Z,5.10
2023-05-19T12:34:02.735Z,5.33
2023-05-19T12:36:35.309Z,5.73
2023-05-19T12:39:10.663Z,6.00
2023-05-19T12:41:41.816Z,5.03
2023-05-19T12:44:18.845Z,5.07
2023-05-19T12:46:56.070Z,5.20
2023-05-19T12:49:27.069Z,5.57
2023-05-19T12:52:00.450Z,6.53
2023-05-19T12:54:36.311Z,4.93
2023-05-19T12:57:09.753Z,5.60
2023-05-19T12:59:42.016Z,5.30
2023-05-19T13:02:18.741Z,5.83
2023-05-19T13:04:50.063Z,4.97
2023-05-19T13:07:21.173Z,4.90
2023-05-19T13:09:52.080Z,5.80
2023-05-19T13:12:23.535Z,5.27
2023-05-19T13:14:55.782Z,5.97
2023-05-19T13:17:29.820Z,5.43
2023-05-19T13:20:00.868Z,5.80
2023-05-19T13:22:32.399Z,4.87
2023-05-19T13:25:03.475Z,4.90
2023-05-19T13:27:34.510Z,6.10
2023-05-19T13:30:05.687Z,5.17
2023-05-19T13:32:39.327Z,5.73
2023-05-19T13:35:12.329Z,5.40
2023-05-19T13:37:44.791Z,5.13
2023-05-19T13:40:17.564Z,5.43
2023-05-19T13:42:49.974Z,4.83
2023-05-19T13:45:21.386Z,5.20
2023-05-19T13:47:55.025Z,5.90
2023-05-19T13:50:26.162Z,5.00
2023-05-19T13:52:56.964Z,5.27
2023-05-19T13:55:27.869Z,5.60
2023-05-19T13:57:58.638Z,5.50
2023-05-19T14:03:35.432Z,5.23
2023-05-19T14:06:06.625Z,4.50
2023-05-19T14:08:37.303Z,6.00
2023-05-19T14:11:08.578Z,5.57
2023-05-19T14:13:41.912Z,6.33
2023-05-19T14:16:14.317Z,5.60
2023-05-19T14:18:48.306Z,5.13
2023-05-19T14:21:19.619Z,5.20
2023-05-19T14:23:50.502Z,5.10
2023-05-19T14:26:22.570Z,5.50
2023-05-19T14:28:54.287Z,5.30
2023-05-19T14:31:25.359Z,4.77
2023-05-19T14:34:02.761Z,5.03
2023-05-19T14:36:35.329Z,5.70
2023-05-19T14:39:06.729Z,7.33
2023-05-19T14:41:37.537Z,6.43
2023-05-19T14:44:09.103Z,5.57
2023-05-19T14:46:40.310Z,5.80
2023-05-19T14:49:14.207Z,5.73
2023-05-19T14:51:44.979Z,5.67
2023-05-19T14:54:15.913Z,5.70
2023-05-19T14:56:46.928Z,5.50
2023-05-19T14:59:17.831Z,5.40
2023-05-19T15:01:48.911Z,5.60
2023-05-19T15:04:22.791Z,5.53
2023-05-19T15:07:05.670Z,5.00
2023-05-19T15:09:40.736Z,5.10
2023-05-19T15:12:11.622Z,6.80
2023-05-19T15:14:42.875Z,4.73
2023-05-19T15:17:13.883Z,5.70
2023-05-19T15:19:48.653Z,5.60
2023-05-19T15:22:19.639Z,5.10
2023-05-19T15:24:51.043Z,5.20
2023-05-19T15:27:22.004Z,5.10
2023-05-19T15:29:52.797Z,6.60
2023-05-19T15:32:26.076Z,4.73
2023-05-19T15:34:59.628Z,5.37
2023-05-19T15:37:34.128Z,4.47
2023-05-19T15:40:04.892Z,5.43
2023-05-19T15:42:35.721Z,5.40
2023-05-19T15:45:08.200Z,5.20
2023-05-19T15:47:39.674Z,5.30
2023-05-19T15:50:15.008Z,5.27
2023-05-19T15:52:47.635Z,5.03
2023-05-19T15:55:18.848Z,5.37
2023-05-19T15:57:50.051Z,5.80
2023-05-19T16:00:21.347Z,5.90
2023-05-19T16:02:52.497Z,5.00
2023-05-19T16:05:25.963Z,4.73
2023-05-19T16:07:56.737Z,5.30
2023-05-19T16:10:27.834Z,5.57
2023-05-19T16:12:58.924Z,5.83
2023-05-19T16:15:29.973Z,4.77
2023-05-19T16:18:01.804Z,4.70
2023-05-19T16:20:35.458Z,8.63
2023-05-19T16:23:06.419Z,5.07
2023-05-19T16:25:37.558Z,5.83
2023-05-19T16:28:08.756Z,5.37
2023-05-19T16:30:39.586Z,5.30
2023-05-19T16:33:10.500Z,4.90
2023-05-19T16:35:44.208Z,4.53
2023-05-19T16:38:15.272Z,4.93
2023-05-19T16:40:46.366Z,4.43
2023-05-19T16:43:17.390Z,4.40
2023-05-19T16:45:48.464Z,4.00
2023-05-19T16:48:19.690Z,4.40
2023-05-19T16:50:54.427Z,4.40
2023-05-19T16:53:25.201Z,4.43
2023-05-19T16:55:56.005Z,4.60
2023-05-19T16:58:28.014Z,5.03
2023-05-19T17:00:59.836Z,5.13
2023-05-19T17:03:33.348Z,4.40
2023-05-19T17:06:07.192Z,6.20
2023-05-19T17:08:38.287Z,4.30
2023-05-19T17:11:09.614Z,3.97
2023-05-19T17:13:42.425Z,4.00
2023-05-19T17:16:13.524Z,3.90
2023-05-19T17:18:44.432Z,3.93
2023-05-19T17:21:17.945Z,5.07
2023-05-19T17:23:51.804Z,4.07
2023-05-19T17:26:22.951Z,5.13
2023-05-19T17:28:54.107Z,4.47
2023-05-19T17:31:25.271Z,4.20
2023-05-19T17:33:56.299Z,4.60
2023-05-19T17:36:29.767Z,4.27
2023-05-19T17:39:01.007Z,4.60
2023-05-19T17:41:32.171Z,3.80
2023-05-19T17:44:04.257Z,4.70
2023-05-19T17:46:35.378Z,5.40
2023-05-19T17:49:06.489Z,4.30
2023-05-19T17:51:42.153Z,4.73
2023-05-19T17:54:13.986Z,4.20
2023-05-19T17:56:47.217Z,4.20
2023-05-19T17:59:18.726Z,4.70
2023-05-19T18:01:49.845Z,4.50
2023-05-19T18:04:21.445Z,4.13
2023-05-19T18:06:55.891Z,4.30
2023-05-19T18:09:29.400Z,5.00
2023-05-19T18:12:02.520Z,5.07
2023-05-19T18:14:33.652Z,4.40
2023-05-19T18:17:04.578Z,4.67
2023-05-19T18:19:36.094Z,3.83
2023-05-19T18:22:13.023Z,3.80
2023-05-19T18:24:43.868Z,5.10
2023-05-19T18:27:14.933Z,5.10
2023-05-19T18:29:46.010Z,4.60
2023-05-19T18:32:18.516Z,5.03
2023-05-19T18:34:49.633Z,5.33
2023-05-19T18:37:23.450Z,5.40
2023-05-19T18:39:54.356Z,5.67
2023-05-19T18:42:25.893Z,5.53
2023-05-19T18:44:57.033Z,5.10
2023-05-19T18:47:27.968Z,5.33
2023-05-19T18:49:59.504Z,4.60
2023-05-19T18:52:33.193Z,4.80
2023-05-19T18:55:03.995Z,4.37
2023-05-19T18:57:34.708Z,5.63
2023-05-19T19:00:05.650Z,5.53
2023-05-19T19:02:36.711Z,5.40
2023-05-19T19:05:09.955Z,4.53
2023-05-19T19:07:46.664Z,4.90
2023-05-19T19:10:17.526Z,5.33
2023-05-19T19:12:48.247Z,5.27
2023-05-19T19:15:18.983Z,5.00
2023-05-19T19:17:49.972Z,5.70
2023-05-19T19:20:21.168Z,5.47
2023-05-19T19:22:55.755Z,5.23
2023-05-19T19:25:26.598Z,5.40
2023-05-19T19:27:57.641Z,4.07
2023-05-19T19:30:28.557Z,5.23
2023-05-19T19:33:12.081Z,5.17
2023-05-19T19:35:42.989Z,6.07
2023-05-19T19:38:16.183Z,5.20
2023-05-19T19:40:47.054Z,5.00
2023-05-19T19:43:17.822Z,5.23
2023-05-19T19:45:48.945Z,5.50
2023-05-19T19:51:16.396Z,4.87
2023-05-19T19:53:50.320Z,4.83
2023-05-19T19:56:24.010Z,4.10
2023-05-19T19:59:00.459Z,5.67
2023-05-19T20:01:31.480Z,5.53
2023-05-19T20:04:02.470Z,5.40
2023-05-19T20:06:34.185Z,5.43
2023-05-19T20:09:07.786Z,5.63
2023-05-19T20:11:38.789Z,4.93
2023-05-19T20:14:09.682Z,5.87
2023-05-19T20:16:41.506Z,5.17
2023-05-19T20:19:12.339Z,5.60
2023-05-19T20:21:43.075Z,6.03
2023-05-19T20:24:16.478Z,5.70
2023-05-19T20:26:47.296Z,5.87
2023-05-19T20:29:18.097Z,5.97
2023-05-19T20:31:49.425Z,5.93
2023-05-19T20:34:20.142Z,5.80
2023-05-19T20:36:51.501Z,6.60
2023-05-19T20:39:24.897Z,6.57
2023-05-19T20:41:55.764Z,6.90
2023-05-19T20:44:26.620Z,9.00
2023-05-19T20:46:58.298Z,6.73
2023-05-19T20:49:32.394Z,6.73
2023-05-19T20:52:03.318Z,7.00
2023-05-19T20:54:37.018Z,7.50
2023-05-19T20:57:10.292Z,7.83
2023-05-19T20:59:49.516Z,7.20
2023-05-19T21:02:20.573Z,7.57
2023-05-19T21:04:51.871Z,8.90
2023-05-19T21:07:25.958Z,7.30
2023-05-19T21:09:59.552Z,5.60
2023-05-19T21:12:34.538Z,7.53
2023-05-19T21:15:06.229Z,7.00
2023-05-19T21:17:36.944Z,7.30
2023-05-19T21:20:09.084Z,7.83
2023-05-19T21:22:41.448Z,7.30
2023-05-19T21:25:17.458Z,7.60
2023-05-19T21:27:48.695Z,7.30
2023-05-19T21:30:19.513Z,7.40
2023-05-19T21:32:50.326Z,6.37
2023-05-19T21:35:21.247Z,7.97
2023-05-19T21:37:52.363Z,7.00
2023-05-19T21:40:25.769Z,7.20
2023-05-19T21:42:57.610Z,7.30
2023-05-19T21:45:28.659Z,6.50
2023-05-19T21:47:59.681Z,7.30
2023-05-19T21:50:30.949Z,6.63
2023-05-19T21:53:02.945Z,7.50
2023-05-19T21:55:36.603Z,7.40
2023-05-19T21:58:07.656Z,7.23
2023-05-19T22:00:38.667Z,6.97
2023-05-19T22:03:09.590Z,8.07
2023-05-19T22:05:40.637Z,6.97
2023-05-19T22:08:11.618Z,7.73
2023-05-19T22:10:45.105Z,7.33
2023-05-19T22:13:16.342Z,7.20
2023-05-19T22:15:47.426Z,6.87
2023-05-19T22:18:18.127Z,5.90
2023-05-19T22:20:49.224Z,7.27
2023-05-19T22:23:20.252Z,6.73
2023-05-19T22:25:54.186Z,7.70
2023-05-19T22:28:24.804Z,7.23
2023-05-19T22:30:55.485Z,7.33
2023-05-19T22:33:26.456Z,7.37
2023-05-19T22:35:57.209Z,6.47
2023-05-19T22:38:28.343Z,7.20
2023-05-19T22:41:01.681Z,7.50
2023-05-19T22:43:32.434Z,7.17
2023-05-19T22:46:03.312Z,7.30
2023-05-19T22:48:34.329Z,7.70
2023-05-19T22:51:05.180Z,7.30
2023-05-19T22:53:36.306Z,7.83
2023-05-19T22:56:10.214Z,8.23
2023-05-19T22:58:41.298Z,7.97
2023-05-19T23:01:12.216Z,7.67
2023-05-19T23:03:43.015Z,7.40
2023-05-19T23:06:13.979Z,7.47
2023-05-19T23:08:44.909Z,6.97
2023-05-19T23:11:19.580Z,8.20
2023-05-19T23:13:50.855Z,7.23
2023-05-19T23:16:21.830Z,7.67
2023-05-19T23:18:53.224Z,7.07
2023-05-19T23:21:24.632Z,7.10
2023-05-19T23:23:55.950Z,7.40
2023-05-19T23:26:29.890Z,7.77
2023-05-19T23:29:01.271Z,7.50
2023-05-19T23:31:32.473Z,8.30
2023-05-19T23:34:05.918Z,7.83
2023-05-19T23:36:37.214Z,7.77
2023-05-19T23:39:08.126Z,6.90
2023-05-19T23:41:41.965Z,7.50
2023-05-19T23:44:13.217Z,8.27
2023-05-19T23:46:44.134Z,7.10
2023-05-19T23:49:15.461Z,7.43
2023-05-19T23:51:46.226Z,8.90
2023-05-19T23:54:17.003Z,8.23
2023-05-19T23:56:50.500Z,8.03
2023-05-19T23:59:21.591Z,8.13
